sensor_id;sensor_type;location;lat;lon;timestamp;P1;durP1;ratioP1;P2;durP2;ratioP2
8219;SDS011;4151;51.110;7.020;2024-01-11T00:00:32;30.50;;;12.43;;
8219;SDS011;4151;51.110;7.020;2024-01-11T00:02:58;24.80;;;12.07;;
8219;SDS011;4151;51.110;7.020;2024-01-11T00:05:23;18.33;;;9.00;;
8219;SDS011;4151;51.110;7.020;2024-01-11T00:07:49;32.43;;;12.50;;
8219;SDS011;4151;51.110;7.020;2024-01-11T00:10:15;31.40;;;10.97;;
8219;SDS011;4151;51.110;7.020;2024-01-11T00:12:41;33.13;;;10.97;;
8219;SDS011;4151;51.110;7.020;2024-01-11T00:15:06;25.13;;;10.30;;
8219;SDS011;4151;51.110;7.020;2024-01-11T00:17:32;22.63;;;10.17;;
8219;SDS011;4151;51.110;7.020;2024-01-11T00:19:58;24.20;;;10.50;;
8219;SDS011;4151;51.110;7.020;2024-01-11T00:22:23;28.87;;;11.67;;
8219;SDS011;4151;51.110;7.020;2024-01-11T00:24:49;31.23;;;11.47;;
8219;SDS011;4151;51.110;7.020;2024-01-11T00:27:14;20.60;;;10.33;;
8219;SDS011;4151;51.110;7.020;2024-01-11T00:29:40;22.93;;;9.50;;
8219;SDS011;4151;51.110;7.020;2024-01-11T00:32:06;28.00;;;11.33;;
8219;SDS011;4151;51.110;7.020;2024-01-11T00:34:31;29.33;;;13.07;;
8219;SDS011;4151;51.110;7.020;2024-01-11T00:36:57;28.23;;;11.87;;
8219;SDS011;4151;51.110;7.020;2024-01-11T00:39:23;28.97;;;11.30;;
8219;SDS011;4151;51.110;7.020;2024-01-11T00:41:48;21.77;;;9.70;;
8219;SDS011;4151;51.110;7.020;2024-01-11T00:44:14;22.43;;;10.90;;
8219;SDS011;4151;51.110;7.020;2024-01-11T00:46:39;25.50;;;10.47;;
8219;SDS011;4151;51.110;7.020;2024-01-11T00:49:05;26.00;;;10.97;;
8219;SDS011;4151;51.110;7.020;2024-01-11T00:51:31;26.90;;;11.73;;
8219;SDS011;4151;51.110;7.020;2024-01-11T00:53:57;30.60;;;11.63;;
8219;SDS011;4151;51.110;7.020;2024-01-11T00:56:22;26.73;;;10.27;;
8219;SDS011;4151;51.110;7.020;2024-01-11T00:58:48;31.10;;;12.20;;
8219;SDS011;4151;51.110;7.020;2024-01-11T01:01:13;24.30;;;11.13;;
8219;SDS011;4151;51.110;7.020;2024-01-11T01:03:39;28.50;;;12.73;;
8219;SDS011;4151;51.110;7.020;2024-01-11T01:06:05;25.43;;;11.10;;
8219;SDS011;4151;51.110;7.020;2024-01-11T01:08:31;27.50;;;11.20;;
8219;SDS011;4151;51.110;7.020;2024-01-11T01:10:56;26.47;;;10.80;;
8219;SDS011;4151;51.110;7.020;2024-01-11T01:13:22;28.70;;;11.30;;
8219;SDS011;4151;51.110;7.020;2024-01-11T01:15:48;24.67;;;10.33;;
8219;SDS011;4151;51.110;7.020;2024-01-11T01:18:13;24.47;;;10.33;;
8219;SDS011;4151;51.110;7.020;2024-01-11T01:20:39;30.43;;;11.10;;
8219;SDS011;4151;51.110;7.020;2024-01-11T01:23:04;31.00;;;12.07;;
8219;SDS011;4151;51.110;7.020;2024-01-11T01:25:30;26.73;;;10.37;;
8219;SDS011;4151;51.110;7.020;2024-01-11T01:27:57;27.23;;;12.50;;
8219;SDS011;4151;51.110;7.020;2024-01-11T01:30:24;29.17;;;10.07;;
8219;SDS011;4151;51.110;7.020;2024-01-11T01:32:50;36.33;;;13.43;;
8219;SDS011;4151;51.110;7.020;2024-01-11T01:35:15;25.33;;;11.13;;
8219;SDS011;4151;51.110;7.020;2024-01-11T01:37:41;26.53;;;10.60;;
8219;SDS011;4151;51.110;7.020;2024-01-11T01:40:07;22.70;;;9.67;;
8219;SDS011;4151;51.110;7.020;2024-01-11T01:42:33;21.57;;;9.57;;
8219;SDS011;4151;51.110;7.020;2024-01-11T01:44:59;31.50;;;10.20;;
8219;SDS011;4151;51.110;7.020;2024-01-11T01:47:28;30.63;;;10.07;;
8219;SDS011;4151;51.110;7.020;2024-01-11T01:49:54;27.07;;;9.90;;
8219;SDS011;4151;51.110;7.020;2024-01-11T01:52:20;34.07;;;11.47;;
8219;SDS011;4151;51.110;7.020;2024-01-11T01:54:47;29.07;;;11.40;;
8219;SDS011;4151;51.110;7.020;2024-01-11T01:57:13;25.20;;;9.27;;
8219;SDS011;4151;51.110;7.020;2024-01-11T01:59:41;27.53;;;10.47;;
8219;SDS011;4151;51.110;7.020;2024-01-11T02:02:08;35.33;;;12.37;;
8219;SDS011;4151;51.110;7.020;2024-01-11T02:04:34;23.03;;;10.00;;
8219;SDS011;4151;51.110;7.020;2024-01-11T02:07:00;24.07;;;10.90;;
8219;SDS011;4151;51.110;7.020;2024-01-11T02:09:26;29.23;;;13.00;;
8219;SDS011;4151;51.110;7.020;2024-01-11T02:11:53;30.43;;;11.03;;
8219;SDS011;4151;51.110;7.020;2024-01-11T02:14:19;28.63;;;12.30;;
8219;SDS011;4151;51.110;7.020;2024-01-11T02:16:45;22.57;;;10.30;;
8219;SDS011;4151;51.110;7.020;2024-01-11T02:19:12;26.47;;;11.10;;
8219;SDS011;4151;51.110;7.020;2024-01-11T02:21:39;25.63;;;9.63;;
8219;SDS011;4151;51.110;7.020;2024-01-11T02:24:08;34.27;;;11.27;;
8219;SDS011;4151;51.110;7.020;2024-01-11T02:26:35;30.07;;;10.53;;
8219;SDS011;4151;51.110;7.020;2024-01-11T02:29:01;35.23;;;11.23;;
8219;SDS011;4151;51.110;7.020;2024-01-11T02:31:27;25.17;;;11.17;;
8219;SDS011;4151;51.110;7.020;2024-01-11T02:33:52;27.90;;;10.40;;
8219;SDS011;4151;51.110;7.020;2024-01-11T02:36:19;32.53;;;11.17;;
8219;SDS011;4151;51.110;7.020;2024-01-11T02:38:46;29.97;;;10.73;;
8219;SDS011;4151;51.110;7.020;2024-01-11T02:41:12;35.23;;;12.97;;
8219;SDS011;4151;51.110;7.020;2024-01-11T02:43:41;34.70;;;13.40;;
8219;SDS011;4151;51.110;7.020;2024-01-11T02:46:11;34.50;;;13.13;;
8219;SDS011;4151;51.110;7.020;2024-01-11T02:48:37;30.40;;;13.30;;
8219;SDS011;4151;51.110;7.020;2024-01-11T02:51:03;31.43;;;14.40;;
8219;SDS011;4151;51.110;7.020;2024-01-11T02:53:29;31.87;;;12.40;;
8219;SDS011;4151;51.110;7.020;2024-01-11T02:55:59;28.90;;;11.60;;
8219;SDS011;4151;51.110;7.020;2024-01-11T02:58:25;40.27;;;13.50;;
8219;SDS011;4151;51.110;7.020;2024-01-11T03:00:50;27.27;;;11.53;;
8219;SDS011;4151;51.110;7.020;2024-01-11T03:03:16;32.93;;;11.13;;
8219;SDS011;4151;51.110;7.020;2024-01-11T03:05:41;27.50;;;10.83;;
8219;SDS011;4151;51.110;7.020;2024-01-11T03:08:07;31.50;;;12.20;;
8219;SDS011;4151;51.110;7.020;2024-01-11T03:10:32;27.30;;;11.90;;
8219;SDS011;4151;51.110;7.020;2024-01-11T03:12:58;26.67;;;10.73;;
8219;SDS011;4151;51.110;7.020;2024-01-11T03:15:23;28.30;;;11.23;;
8219;SDS011;4151;51.110;7.020;2024-01-11T03:17:49;29.73;;;12.23;;
8219;SDS011;4151;51.110;7.020;2024-01-11T04:14:06;33.53;;;10.13;;
8219;SDS011;4151;51.110;7.020;2024-01-11T04:16:31;29.67;;;10.73;;
8219;SDS011;4151;51.110;7.020;2024-01-11T04:18:57;21.20;;;9.90;;
8219;SDS011;4151;51.110;7.020;2024-01-11T04:21:23;31.70;;;10.73;;
8219;SDS011;4151;51.110;7.020;2024-01-11T04:23:50;32.43;;;11.30;;
8219;SDS011;4151;51.110;7.020;2024-01-11T04:26:16;33.87;;;11.93;;
8219;SDS011;4151;51.110;7.020;2024-01-11T04:28:43;33.00;;;10.57;;
8219;SDS011;4151;51.110;7.020;2024-01-11T04:31:09;33.17;;;13.40;;
8219;SDS011;4151;51.110;7.020;2024-01-11T04:33:35;39.93;;;10.97;;
8219;SDS011;4151;51.110;7.020;2024-01-11T04:36:00;25.53;;;10.43;;
8219;SDS011;4151;51.110;7.020;2024-01-11T04:38:26;30.43;;;11.13;;
8219;SDS011;4151;51.110;7.020;2024-01-11T04:40:51;22.33;;;10.33;;
8219;SDS011;4151;51.110;7.020;2024-01-11T04:43:17;31.13;;;10.43;;
8219;SDS011;4151;51.110;7.020;2024-01-11T04:45:43;27.63;;;11.00;;
8219;SDS011;4151;51.110;7.020;2024-01-11T04:48:08;24.27;;;10.60;;
8219;SDS011;4151;51.110;7.020;2024-01-11T04:50:34;26.37;;;9.60;;
8219;SDS011;4151;51.110;7.020;2024-01-11T04:53:00;29.17;;;10.23;;
8219;SDS011;4151;51.110;7.020;2024-01-11T04:55:25;26.20;;;10.40;;
8219;SDS011;4151;51.110;7.020;2024-01-11T04:57:51;30.77;;;10.77;;
8219;SDS011;4151;51.110;7.020;2024-01-11T05:00:17;24.90;;;10.03;;
8219;SDS011;4151;51.110;7.020;2024-01-11T05:02:42;33.40;;;11.47;;
8219;SDS011;4151;51.110;7.020;2024-01-11T05:05:08;28.47;;;10.43;;
8219;SDS011;4151;51.110;7.020;2024-01-11T05:07:33;31.17;;;11.03;;
8219;SDS011;4151;51.110;7.020;2024-01-11T05:09:59;27.73;;;11.07;;
8219;SDS011;4151;51.110;7.020;2024-01-11T05:12:25;39.17;;;11.93;;
8219;SDS011;4151;51.110;7.020;2024-01-11T05:14:50;23.40;;;10.83;;
8219;SDS011;4151;51.110;7.020;2024-01-11T05:17:16;26.40;;;10.83;;
8219;SDS011;4151;51.110;7.020;2024-01-11T05:19:41;25.53;;;10.33;;
8219;SDS011;4151;51.110;7.020;2024-01-11T05:22:07;33.20;;;10.67;;
8219;SDS011;4151;51.110;7.020;2024-01-11T05:24:32;25.23;;;9.40;;
8219;SDS011;4151;51.110;7.020;2024-01-11T05:26:58;18.90;;;9.77;;
8219;SDS011;4151;51.110;7.020;2024-01-11T05:29:24;26.10;;;10.50;;
8219;SDS011;4151;51.110;7.020;2024-01-11T05:31:50;24.90;;;8.83;;
8219;SDS011;4151;51.110;7.020;2024-01-11T05:34:15;29.10;;;11.90;;
8219;SDS011;4151;51.110;7.020;2024-01-11T05:36:41;31.63;;;11.77;;
8219;SDS011;4151;51.110;7.020;2024-01-11T05:39:06;33.50;;;10.77;;
8219;SDS011;4151;51.110;7.020;2024-01-11T05:41:32;29.67;;;12.30;;
8219;SDS011;4151;51.110;7.020;2024-01-11T05:43:57;25.97;;;10.63;;
8219;SDS011;4151;51.110;7.020;2024-01-11T05:46:23;31.63;;;10.93;;
8219;SDS011;4151;51.110;7.020;2024-01-11T05:48:48;29.23;;;10.70;;
8219;SDS011;4151;51.110;7.020;2024-01-11T05:51:14;29.47;;;9.70;;
8219;SDS011;4151;51.110;7.020;2024-01-11T05:53:40;28.30;;;12.03;;
8219;SDS011;4151;51.110;7.020;2024-01-11T05:56:08;23.70;;;8.73;;
8219;SDS011;4151;51.110;7.020;2024-01-11T05:58:34;26.83;;;10.00;;
8219;SDS011;4151;51.110;7.020;2024-01-11T06:01:02;30.43;;;11.20;;
8219;SDS011;4151;51.110;7.020;2024-01-11T06:03:28;23.80;;;9.47;;
8219;SDS011;4151;51.110;7.020;2024-01-11T06:05:54;33.17;;;10.77;;
8219;SDS011;4151;51.110;7.020;2024-01-11T06:08:20;25.97;;;10.33;;
8219;SDS011;4151;51.110;7.020;2024-01-11T06:10:46;34.40;;;12.13;;
8219;SDS011;4151;51.110;7.020;2024-01-11T06:13:11;30.40;;;11.30;;
8219;SDS011;4151;51.110;7.020;2024-01-11T06:15:37;31.17;;;10.33;;
8219;SDS011;4151;51.110;7.020;2024-01-11T06:18:02;28.47;;;12.13;;
8219;SDS011;4151;51.110;7.020;2024-01-11T06:20:29;30.53;;;13.80;;
8219;SDS011;4151;51.110;7.020;2024-01-11T06:22:55;30.97;;;10.97;;
8219;SDS011;4151;51.110;7.020;2024-01-11T06:25:20;25.83;;;10.80;;
8219;SDS011;4151;51.110;7.020;2024-01-11T06:27:46;27.33;;;11.27;;
8219;SDS011;4151;51.110;7.020;2024-01-11T06:30:12;31.10;;;12.97;;
8219;SDS011;4151;51.110;7.020;2024-01-11T06:32:38;23.03;;;11.10;;
8219;SDS011;4151;51.110;7.020;2024-01-11T06:35:04;32.00;;;12.17;;
8219;SDS011;4151;51.110;7.020;2024-01-11T06:37:30;29.27;;;11.30;;
8219;SDS011;4151;51.110;7.020;2024-01-11T06:39:56;28.90;;;11.20;;
8219;SDS011;4151;51.110;7.020;2024-01-11T06:42:21;25.50;;;10.53;;
8219;SDS011;4151;51.110;7.020;2024-01-11T06:44:47;24.27;;;11.30;;
8219;SDS011;4151;51.110;7.020;2024-01-11T06:47:13;30.80;;;11.47;;
8219;SDS011;4151;51.110;7.020;2024-01-11T06:49:38;38.80;;;16.23;;
8219;SDS011;4151;51.110;7.020;2024-01-11T06:52:07;111.77;;;45.27;;
8219;SDS011;4151;51.110;7.020;2024-01-11T06:54:33;39.20;;;15.23;;
8219;SDS011;4151;51.110;7.020;2024-01-11T06:56:58;27.43;;;12.80;;
8219;SDS011;4151;51.110;7.020;2024-01-11T06:59:24;56.50;;;26.87;;
8219;SDS011;4151;51.110;7.020;2024-01-11T07:01:49;43.80;;;18.87;;
8219;SDS011;4151;51.110;7.020;2024-01-11T07:04:15;30.97;;;12.50;;
8219;SDS011;4151;51.110;7.020;2024-01-11T07:06:40;29.40;;;11.97;;
8219;SDS011;4151;51.110;7.020;2024-01-11T07:09:06;31.00;;;13.93;;
8219;SDS011;4151;51.110;7.020;2024-01-11T07:11:31;25.63;;;11.90;;
8219;SDS011;4151;51.110;7.020;2024-01-11T07:13:57;28.77;;;10.97;;
8219;SDS011;4151;51.110;7.020;2024-01-11T07:16:23;32.10;;;11.77;;
8219;SDS011;4151;51.110;7.020;2024-01-11T07:18:49;36.97;;;13.53;;
8219;SDS011;4151;51.110;7.020;2024-01-11T07:21:24;39.30;;;12.97;;
8219;SDS011;4151;51.110;7.020;2024-01-11T07:23:56;29.47;;;11.90;;
8219;SDS011;4151;51.110;7.020;2024-01-11T07:26:25;33.70;;;11.97;;
8219;SDS011;4151;51.110;7.020;2024-01-11T07:28:51;28.90;;;12.00;;
8219;SDS011;4151;51.110;7.020;2024-01-11T07:31:16;33.13;;;12.73;;
8219;SDS011;4151;51.110;7.020;2024-01-11T07:33:42;27.63;;;12.87;;
8219;SDS011;4151;51.110;7.020;2024-01-11T07:36:08;32.90;;;11.40;;
8219;SDS011;4151;51.110;7.020;2024-01-11T07:38:34;30.77;;;12.53;;
8219;SDS011;4151;51.110;7.020;2024-01-11T07:41:00;29.10;;;11.90;;
8219;SDS011;4151;51.110;7.020;2024-01-11T07:43:26;34.23;;;11.03;;
8219;SDS011;4151;51.110;7.020;2024-01-11T07:45:53;30.13;;;11.40;;
8219;SDS011;4151;51.110;7.020;2024-01-11T07:48:21;30.07;;;12.00;;
8219;SDS011;4151;51.110;7.020;2024-01-11T07:50:47;44.87;;;12.07;;
8219;SDS011;4151;51.110;7.020;2024-01-11T07:53:13;28.43;;;12.10;;
8219;SDS011;4151;51.110;7.020;2024-01-11T07:55:39;34.10;;;12.83;;
8219;SDS011;4151;51.110;7.020;2024-01-11T07:58:05;30.77;;;11.93;;
8219;SDS011;4151;51.110;7.020;2024-01-11T08:00:31;41.40;;;14.47;;
8219;SDS011;4151;51.110;7.020;2024-01-11T08:02:57;31.87;;;13.53;;
8219;SDS011;4151;51.110;7.020;2024-01-11T08:05:22;41.53;;;11.43;;
8219;SDS011;4151;51.110;7.020;2024-01-11T08:07:48;31.33;;;12.13;;
8219;SDS011;4151;51.110;7.020;2024-01-11T08:10:14;42.73;;;14.07;;
8219;SDS011;4151;51.110;7.020;2024-01-11T08:12:39;37.73;;;13.70;;
8219;SDS011;4151;51.110;7.020;2024-01-11T08:15:05;34.50;;;13.90;;
8219;SDS011;4151;51.110;7.020;2024-01-11T08:17:30;35.43;;;12.77;;
8219;SDS011;4151;51.110;7.020;2024-01-11T08:19:56;49.90;;;18.43;;
8219;SDS011;4151;51.110;7.020;2024-01-11T08:22:22;36.43;;;13.50;;
8219;SDS011;4151;51.110;7.020;2024-01-11T08:24:48;32.63;;;13.30;;
8219;SDS011;4151;51.110;7.020;2024-01-11T08:27:13;43.50;;;16.70;;
8219;SDS011;4151;51.110;7.020;2024-01-11T08:29:42;32.30;;;14.37;;
8219;SDS011;4151;51.110;7.020;2024-01-11T08:32:07;43.17;;;14.77;;
8219;SDS011;4151;51.110;7.020;2024-01-11T08:34:33;23.43;;;12.13;;
8219;SDS011;4151;51.110;7.020;2024-01-11T08:36:59;31.50;;;13.37;;
8219;SDS011;4151;51.110;7.020;2024-01-11T08:39:24;27.47;;;12.20;;
8219;SDS011;4151;51.110;7.020;2024-01-11T08:41:50;29.73;;;12.20;;
8219;SDS011;4151;51.110;7.020;2024-01-11T08:44:15;35.13;;;12.53;;
8219;SDS011;4151;51.110;7.020;2024-01-11T08:46:41;40.37;;;13.03;;
8219;SDS011;4151;51.110;7.020;2024-01-11T08:49:08;34.43;;;14.43;;
8219;SDS011;4151;51.110;7.020;2024-01-11T08:51:34;39.43;;;15.37;;
8219;SDS011;4151;51.110;7.020;2024-01-11T08:53:59;33.63;;;13.67;;
8219;SDS011;4151;51.110;7.020;2024-01-11T08:56:25;48.67;;;14.57;;
8219;SDS011;4151;51.110;7.020;2024-01-11T08:58:51;30.43;;;12.90;;
8219;SDS011;4151;51.110;7.020;2024-01-11T09:01:17;39.03;;;13.93;;
8219;SDS011;4151;51.110;7.020;2024-01-11T09:03:47;41.53;;;16.03;;
8219;SDS011;4151;51.110;7.020;2024-01-11T09:06:13;38.80;;;14.73;;
8219;SDS011;4151;51.110;7.020;2024-01-11T09:08:38;37.27;;;14.17;;
8219;SDS011;4151;51.110;7.020;2024-01-11T09:11:06;44.23;;;16.30;;
8219;SDS011;4151;51.110;7.020;2024-01-11T09:13:31;38.17;;;15.50;;
8219;SDS011;4151;51.110;7.020;2024-01-11T09:15:57;40.13;;;16.20;;
8219;SDS011;4151;51.110;7.020;2024-01-11T09:18:23;46.37;;;16.67;;
8219;SDS011;4151;51.110;7.020;2024-01-11T09:20:49;37.50;;;17.30;;
8219;SDS011;4151;51.110;7.020;2024-01-11T09:23:14;42.10;;;16.27;;
8219;SDS011;4151;51.110;7.020;2024-01-11T09:25:41;43.30;;;17.37;;
8219;SDS011;4151;51.110;7.020;2024-01-11T09:28:06;47.57;;;17.03;;
8219;SDS011;4151;51.110;7.020;2024-01-11T09:30:32;36.00;;;16.90;;
8219;SDS011;4151;51.110;7.020;2024-01-11T09:32:58;43.27;;;18.13;;
8219;SDS011;4151;51.110;7.020;2024-01-11T09:35:23;43.77;;;15.73;;
8219;SDS011;4151;51.110;7.020;2024-01-11T09:37:49;35.80;;;15.90;;
8219;SDS011;4151;51.110;7.020;2024-01-11T09:40:16;36.53;;;14.37;;
8219;SDS011;4151;51.110;7.020;2024-01-11T09:42:42;35.20;;;14.93;;
8219;SDS011;4151;51.110;7.020;2024-01-11T09:45:15;37.20;;;16.37;;
8219;SDS011;4151;51.110;7.020;2024-01-11T09:47:41;43.77;;;16.00;;
8219;SDS011;4151;51.110;7.020;2024-01-11T09:50:09;34.37;;;14.60;;
8219;SDS011;4151;51.110;7.020;2024-01-11T09:52:35;34.33;;;15.60;;
8219;SDS011;4151;51.110;7.020;2024-01-11T09:55:03;41.53;;;17.10;;
8219;SDS011;4151;51.110;7.020;2024-01-11T09:57:29;41.53;;;16.30;;
8219;SDS011;4151;51.110;7.020;2024-01-11T09:59:57;31.90;;;15.30;;
8219;SDS011;4151;51.110;7.020;2024-01-11T10:02:23;42.30;;;16.47;;
8219;SDS011;4151;51.110;7.020;2024-01-11T10:04:51;42.47;;;16.13;;
8219;SDS011;4151;51.110;7.020;2024-01-11T10:07:18;39.03;;;15.63;;
8219;SDS011;4151;51.110;7.020;2024-01-11T10:09:47;37.67;;;16.73;;
8219;SDS011;4151;51.110;7.020;2024-01-11T10:12:14;45.80;;;17.20;;
8219;SDS011;4151;51.110;7.020;2024-01-11T10:14:40;41.27;;;16.47;;
8219;SDS011;4151;51.110;7.020;2024-01-11T10:17:06;37.10;;;16.80;;
8219;SDS011;4151;51.110;7.020;2024-01-11T10:19:32;37.60;;;16.50;;
8219;SDS011;4151;51.110;7.020;2024-01-11T10:21:57;38.97;;;17.80;;
8219;SDS011;4151;51.110;7.020;2024-01-11T10:24:23;41.13;;;17.30;;
8219;SDS011;4151;51.110;7.020;2024-01-11T10:26:51;51.83;;;20.20;;
8219;SDS011;4151;51.110;7.020;2024-01-11T10:29:20;38.40;;;15.80;;
8219;SDS011;4151;51.110;7.020;2024-01-11T10:31:45;41.87;;;19.07;;
8219;SDS011;4151;51.110;7.020;2024-01-11T10:34:11;43.10;;;18.00;;
8219;SDS011;4151;51.110;7.020;2024-01-11T10:36:36;53.37;;;20.70;;
8219;SDS011;4151;51.110;7.020;2024-01-11T10:39:02;41.97;;;18.13;;
8219;SDS011;4151;51.110;7.020;2024-01-11T10:41:31;44.67;;;18.27;;
8219;SDS011;4151;51.110;7.020;2024-01-11T10:44:02;47.17;;;18.60;;
8219;SDS011;4151;51.110;7.020;2024-01-11T10:46:30;47.67;;;20.80;;
8219;SDS011;4151;51.110;7.020;2024-01-11T10:48:58;41.27;;;19.60;;
8219;SDS011;4151;51.110;7.020;2024-01-11T10:51:27;53.57;;;22.30;;
8219;SDS011;4151;51.110;7.020;2024-01-11T10:53:57;46.13;;;21.20;;
8219;SDS011;4151;51.110;7.020;2024-01-11T10:56:23;50.93;;;18.60;;
8219;SDS011;4151;51.110;7.020;2024-01-11T10:58:50;41.83;;;18.90;;
8219;SDS011;4151;51.110;7.020;2024-01-11T11:01:16;52.60;;;21.47;;
8219;SDS011;4151;51.110;7.020;2024-01-11T11:03:42;45.10;;;19.70;;
8219;SDS011;4151;51.110;7.020;2024-01-11T11:06:09;41.30;;;20.73;;
8219;SDS011;4151;51.110;7.020;2024-01-11T11:08:36;40.23;;;19.30;;
8219;SDS011;4151;51.110;7.020;2024-01-11T11:11:03;46.03;;;20.53;;
8219;SDS011;4151;51.110;7.020;2024-01-11T11:13:33;38.13;;;19.23;;
8219;SDS011;4151;51.110;7.020;2024-01-11T11:16:02;46.13;;;20.80;;
8219;SDS011;4151;51.110;7.020;2024-01-11T11:18:31;56.77;;;20.87;;
8219;SDS011;4151;51.110;7.020;2024-01-11T11:20:59;45.63;;;18.00;;
8219;SDS011;4151;51.110;7.020;2024-01-11T11:23:25;40.13;;;18.73;;
8219;SDS011;4151;51.110;7.020;2024-01-11T11:25:51;49.87;;;17.93;;
8219;SDS011;4151;51.110;7.020;2024-01-11T11:28:20;40.47;;;19.33;;
8219;SDS011;4151;51.110;7.020;2024-01-11T11:30:48;49.83;;;21.33;;
8219;SDS011;4151;51.110;7.020;2024-01-11T11:33:17;55.23;;;22.20;;
8219;SDS011;4151;51.110;7.020;2024-01-11T11:35:52;48.87;;;20.47;;
8219;SDS011;4151;51.110;7.020;2024-01-11T11:38:20;40.80;;;19.77;;
8219;SDS011;4151;51.110;7.020;2024-01-11T11:40:47;50.90;;;21.00;;
8219;SDS011;4151;51.110;7.020;2024-01-11T11:43:17;50.03;;;20.60;;
8219;SDS011;4151;51.110;7.020;2024-01-11T11:45:45;44.17;;;19.90;;
8219;SDS011;4151;51.110;7.020;2024-01-11T11:51:11;48.77;;;21.47;;
8219;SDS011;4151;51.110;7.020;2024-01-11T11:53:38;48.27;;;20.37;;
8219;SDS011;4151;51.110;7.020;2024-01-11T11:56:05;48.10;;;20.43;;
8219;SDS011;4151;51.110;7.020;2024-01-11T11:58:32;40.73;;;19.47;;
8219;SDS011;4151;51.110;7.020;2024-01-11T12:00:59;61.23;;;22.57;;
8219;SDS011;4151;51.110;7.020;2024-01-11T12:03:28;47.50;;;20.10;;
8219;SDS011;4151;51.110;7.020;2024-01-11T12:05:56;44.67;;;19.57;;
8219;SDS011;4151;51.110;7.020;2024-01-11T12:08:23;42.83;;;20.07;;
8219;SDS011;4151;51.110;7.020;2024-01-11T12:10:48;42.17;;;18.70;;
8219;SDS011;4151;51.110;7.020;2024-01-11T12:13:14;59.17;;;20.87;;
8219;SDS011;4151;51.110;7.020;2024-01-11T12:15:40;43.50;;;19.67;;
8219;SDS011;4151;51.110;7.020;2024-01-11T12:18:06;45.80;;;21.60;;
8219;SDS011;4151;51.110;7.020;2024-01-11T12:20:35;46.77;;;19.20;;
8219;SDS011;4151;51.110;7.020;2024-01-11T12:23:00;54.07;;;21.20;;
8219;SDS011;4151;51.110;7.020;2024-01-11T12:25:27;40.57;;;19.60;;
8219;SDS011;4151;51.110;7.020;2024-01-11T12:27:53;42.73;;;19.47;;
8219;SDS011;4151;51.110;7.020;2024-01-11T12:30:21;45.53;;;19.33;;
8219;SDS011;4151;51.110;7.020;2024-01-11T12:32:47;43.07;;;19.70;;
8219;SDS011;4151;51.110;7.020;2024-01-11T12:35:13;44.40;;;18.90;;
8219;SDS011;4151;51.110;7.020;2024-01-11T12:37:38;53.37;;;21.13;;
8219;SDS011;4151;51.110;7.020;2024-01-11T12:40:04;41.97;;;19.60;;
8219;SDS011;4151;51.110;7.020;2024-01-11T12:42:33;56.37;;;19.90;;
8219;SDS011;4151;51.110;7.020;2024-01-11T12:45:00;53.00;;;20.27;;
8219;SDS011;4151;51.110;7.020;2024-01-11T12:47:25;45.77;;;20.90;;
8219;SDS011;4151;51.110;7.020;2024-01-11T12:49:51;42.77;;;20.30;;
8219;SDS011;4151;51.110;7.020;2024-01-11T12:52:17;49.00;;;20.80;;
8219;SDS011;4151;51.110;7.020;2024-01-11T12:54:44;44.53;;;21.43;;
8219;SDS011;4151;51.110;7.020;2024-01-11T12:57:17;46.30;;;21.07;;
8219;SDS011;4151;51.110;7.020;2024-01-11T12:59:44;52.47;;;20.20;;
8219;SDS011;4151;51.110;7.020;2024-01-11T13:02:10;43.83;;;19.73;;
8219;SDS011;4151;51.110;7.020;2024-01-11T13:04:39;46.13;;;19.80;;
8219;SDS011;4151;51.110;7.020;2024-01-11T13:07:05;50.00;;;20.37;;
8219;SDS011;4151;51.110;7.020;2024-01-11T13:09:32;42.43;;;19.57;;
8219;SDS011;4151;51.110;7.020;2024-01-11T13:11:58;50.77;;;20.30;;
8219;SDS011;4151;51.110;7.020;2024-01-11T13:14:23;52.30;;;21.70;;
8219;SDS011;4151;51.110;7.020;2024-01-11T13:16:49;53.63;;;19.77;;
8219;SDS011;4151;51.110;7.020;2024-01-11T13:19:15;47.03;;;21.70;;
8219;SDS011;4151;51.110;7.020;2024-01-11T13:21:40;49.30;;;21.23;;
8219;SDS011;4151;51.110;7.020;2024-01-11T13:24:06;47.07;;;20.73;;
8219;SDS011;4151;51.110;7.020;2024-01-11T13:26:35;48.20;;;22.40;;
8219;SDS011;4151;51.110;7.020;2024-01-11T13:29:02;51.40;;;21.33;;
8219;SDS011;4151;51.110;7.020;2024-01-11T13:31:27;50.07;;;22.03;;
8219;SDS011;4151;51.110;7.020;2024-01-11T13:33:53;44.70;;;22.10;;
8219;SDS011;4151;51.110;7.020;2024-01-11T13:36:21;41.80;;;19.23;;
8219;SDS011;4151;51.110;7.020;2024-01-11T13:38:47;47.73;;;23.67;;
8219;SDS011;4151;51.110;7.020;2024-01-11T13:41:15;55.00;;;21.27;;
8219;SDS011;4151;51.110;7.020;2024-01-11T13:43:42;44.60;;;20.30;;
8219;SDS011;4151;51.110;7.020;2024-01-11T13:46:08;47.53;;;20.80;;
8219;SDS011;4151;51.110;7.020;2024-01-11T13:48:34;48.20;;;19.93;;
8219;SDS011;4151;51.110;7.020;2024-01-11T13:50:59;46.97;;;20.53;;
8219;SDS011;4151;51.110;7.020;2024-01-11T13:53:25;43.07;;;18.87;;
8219;SDS011;4151;51.110;7.020;2024-01-11T13:55:51;40.87;;;20.03;;
8219;SDS011;4151;51.110;7.020;2024-01-11T13:58:17;52.57;;;20.77;;
8219;SDS011;4151;51.110;7.020;2024-01-11T14:00:43;46.70;;;19.33;;
8219;SDS011;4151;51.110;7.020;2024-01-11T14:03:09;50.97;;;23.40;;
8219;SDS011;4151;51.110;7.020;2024-01-11T14:05:36;46.23;;;20.63;;
8219;SDS011;4151;51.110;7.020;2024-01-11T14:08:02;50.77;;;21.77;;
8219;SDS011;4151;51.110;7.020;2024-01-11T14:10:30;47.97;;;18.50;;
8219;SDS011;4151;51.110;7.020;2024-01-11T14:12:57;63.80;;;22.33;;
8219;SDS011;4151;51.110;7.020;2024-01-11T14:15:24;57.20;;;21.30;;
8219;SDS011;4151;51.110;7.020;2024-01-11T14:17:50;48.33;;;20.70;;
8219;SDS011;4151;51.110;7.020;2024-01-11T14:20:16;49.87;;;21.33;;
8219;SDS011;4151;51.110;7.020;2024-01-11T14:22:42;40.43;;;17.70;;
8219;SDS011;4151;51.110;7.020;2024-01-11T14:25:12;50.10;;;20.60;;
8219;SDS011;4151;51.110;7.020;2024-01-11T14:27:38;46.40;;;22.03;;
8219;SDS011;4151;51.110;7.020;2024-01-11T14:30:04;38.87;;;18.40;;
8219;SDS011;4151;51.110;7.020;2024-01-11T14:32:31;54.47;;;19.57;;
8219;SDS011;4151;51.110;7.020;2024-01-11T14:34:57;50.57;;;19.90;;
8219;SDS011;4151;51.110;7.020;2024-01-11T14:37:22;48.77;;;21.20;;
8219;SDS011;4151;51.110;7.020;2024-01-11T14:39:48;50.03;;;20.53;;
8219;SDS011;4151;51.110;7.020;2024-01-11T14:42:13;44.50;;;17.97;;
8219;SDS011;4151;51.110;7.020;2024-01-11T14:44:39;41.07;;;16.87;;
8219;SDS011;4151;51.110;7.020;2024-01-11T14:47:04;34.10;;;14.50;;
8219;SDS011;4151;51.110;7.020;2024-01-11T14:49:31;39.60;;;14.97;;
8219;SDS011;4151;51.110;7.020;2024-01-11T14:51:58;33.37;;;14.30;;
8219;SDS011;4151;51.110;7.020;2024-01-11T14:54:24;31.63;;;12.97;;
8219;SDS011;4151;51.110;7.020;2024-01-11T14:56:49;30.83;;;13.80;;
8219;SDS011;4151;51.110;7.020;2024-01-11T14:59:15;37.80;;;14.73;;
8219;SDS011;4151;51.110;7.020;2024-01-11T15:01:40;36.80;;;15.33;;
8219;SDS011;4151;51.110;7.020;2024-01-11T15:04:06;30.20;;;13.40;;
8219;SDS011;4151;51.110;7.020;2024-01-11T15:06:32;30.17;;;13.37;;
8219;SDS011;4151;51.110;7.020;2024-01-11T15:08:57;32.57;;;13.63;;
8219;SDS011;4151;51.110;7.020;2024-01-11T15:11:23;33.30;;;12.93;;
8219;SDS011;4151;51.110;7.020;2024-01-11T15:13:48;33.37;;;12.37;;
8219;SDS011;4151;51.110;7.020;2024-01-11T15:16:15;33.20;;;14.57;;
8219;SDS011;4151;51.110;7.020;2024-01-11T15:18:40;35.87;;;15.27;;
8219;SDS011;4151;51.110;7.020;2024-01-11T15:21:06;32.13;;;12.93;;
8219;SDS011;4151;51.110;7.020;2024-01-11T15:23:31;33.87;;;13.77;;
8219;SDS011;4151;51.110;7.020;2024-01-11T15:25:57;42.37;;;12.90;;
8219;SDS011;4151;51.110;7.020;2024-01-11T15:28:23;29.67;;;13.40;;
8219;SDS011;4151;51.110;7.020;2024-01-11T15:30:48;34.90;;;13.90;;
8219;SDS011;4151;51.110;7.020;2024-01-11T15:33:14;30.60;;;13.97;;
8219;SDS011;4151;51.110;7.020;2024-01-11T15:35:39;34.10;;;12.70;;
8219;SDS011;4151;51.110;7.020;2024-01-11T15:38:05;30.63;;;12.77;;